Time;durP1;ratioP1;P1;durP2;ratioP2;P2;SDS_P1;SDS_P2;PMS_P1;PMS_P2;Temp;Humidity;BMP_temperature;BMP_pressure;BME280_temperature;BME280_humidity;BME280_pressure;Samples;Min_cycle;Max_cycle;Signal;HPM_P1;HPM_P2
2023/03/13 00:00:58;;;;;;;8.07;1.80;;;5.80;99.90;;;;;;4942008;28;20039;-81
2023/03/13 00:03:24;;;;;;;10.40;2.22;;;5.80;99.90;;;;;;4980015;28;20047;-80
2023/03/13 00:05:55;;;;;;;12.60;2.80;;;5.80;99.90;;;;;;4982445;28;20602;-80
2023/03/13 00:08:21;;;;;;;7.32;2.13;;;5.90;99.90;;;;;;4991236;28;20085;-80
2023/03/13 00:10:46;;;;;;;7.65;2.67;;;5.90;99.90;;;;;;4997019;28;20041;-81
2023/03/13 00:13:12;;;;;;;13.10;2.20;;;5.90;99.90;;;;;;4959016;28;20026;-82
2023/03/13 00:15:38;;;;;;;9.93;2.30;;;5.90;99.90;;;;;;4963674;28;20463;-80
2023/03/13 00:18:04;;;;;;;12.77;2.65;;;5.90;99.90;;;;;;4975244;28;20109;-83
2023/03/13 00:20:30;;;;;;;10.20;2.35;;;5.90;99.90;;;;;;4958339;28;20042;-81
2023/03/13 00:22:55;;;;;;;10.68;2.40;;;6.00;99.90;;;;;;4964857;28;20049;-81
2023/03/13 00:25:21;;;;;;;8.48;2.65;;;6.00;99.90;;;;;;4960848;28;20034;-82
2023/03/13 00:27:48;;;;;;;12.75;3.50;;;6.10;99.90;;;;;;4983382;28;20042;-82
2023/03/13 00:30:14;;;;;;;14.77;3.17;;;6.00;99.90;;;;;;4983200;28;20030;-81
2023/03/13 00:32:45;;;;;;;8.52;2.60;;;6.10;99.90;;;;;;4970674;28;20038;-82
2023/03/13 00:35:14;;;;;;;10.88;3.05;;;6.10;99.90;;;;;;4973708;28;20034;-83
2023/03/13 00:37:41;;;;;;;12.20;2.65;;;6.10;99.90;;;;;;4968031;28;20035;-79
2023/03/13 00:40:08;;;;;;;9.23;2.63;;;6.10;99.90;;;;;;4966293;28;20034;-79
2023/03/13 00:42:35;;;;;;;10.90;2.30;;;6.10;99.90;;;;;;4983836;28;20101;-79
2023/03/13 00:45:01;;;;;;;9.05;2.65;;;6.00;99.90;;;;;;4933461;28;20162;-79
2023/03/13 00:47:27;;;;;;;10.38;2.50;;;6.00;99.90;;;;;;4953104;28;20089;-81
2023/03/13 00:49:53;;;;;;;5.40;2.65;;;5.90;99.90;;;;;;4978830;28;20046;-80
2023/03/13 00:52:18;;;;;;;10.10;2.53;;;5.90;99.90;;;;;;4966225;28;20026;-78
2023/03/13 00:54:44;;;;;;;7.82;2.92;;;5.80;99.90;;;;;;4961339;28;20045;-82
2023/03/13 00:57:10;;;;;;;10.38;2.58;;;5.80;99.90;;;;;;4955526;28;20657;-79
2023/03/13 00:59:36;;;;;;;9.10;3.30;;;5.80;99.90;;;;;;4975067;28;20034;-79
2023/03/13 01:02:01;;;;;;;11.45;3.90;;;5.70;99.90;;;;;;4947121;28;20035;-78
2023/03/13 01:04:27;;;;;;;7.50;2.53;;;5.70;99.90;;;;;;4951680;28;20050;-80
2023/03/13 01:06:53;;;;;;;8.48;2.60;;;5.60;99.90;;;;;;4971581;28;20038;-81
2023/03/13 01:09:19;;;;;;;7.13;2.50;;;5.60;99.90;;;;;;4976272;28;20042;-79
2023/03/13 01:11:45;;;;;;;8.05;2.53;;;5.60;99.90;;;;;;4972139;28;20495;-81
2023/03/13 01:14:15;;;;;;;10.52;2.47;;;5.60;99.90;;;;;;4978304;28;20465;-79
2023/03/13 01:16:41;;;;;;;8.85;2.42;;;5.50;99.90;;;;;;4975869;28;20086;-80
2023/03/13 01:19:13;;;;;;;11.52;2.50;;;5.50;99.90;;;;;;4968461;28;20109;-80
2023/03/13 01:21:39;;;;;;;8.60;1.98;;;5.50;99.90;;;;;;4977341;28;20043;-79
2023/03/13 01:24:05;;;;;;;7.78;2.40;;;5.50;99.90;;;;;;4951734;28;20122;-78
2023/03/13 01:26:32;;;;;;;9.70;2.40;;;5.50;99.90;;;;;;4945654;28;20066;-80
2023/03/13 01:28:58;;;;;;;7.35;1.77;;;5.50;99.90;;;;;;4979269;28;20027;-79
2023/03/13 01:31:30;;;;;;;7.63;2.45;;;5.50;99.90;;;;;;4938208;28;20031;-81
2023/03/13 01:33:59;;;;;;;5.82;2.20;;;5.50;99.90;;;;;;4971572;28;20030;-80
2023/03/13 01:36:26;;;;;;;10.90;2.60;;;5.50;99.90;;;;;;4956282;28;20030;-79
2023/03/13 01:38:54;;;;;;;12.10;2.80;;;5.60;99.90;;;;;;4965801;28;20039;-79
2023/03/13 01:41:21;;;;;;;10.40;1.95;;;5.60;99.90;;;;;;4971639;28;20118;-79
2023/03/13 01:43:47;;;;;;;13.30;3.55;;;5.60;99.90;;;;;;4951249;28;20062;-79
2023/03/13 01:46:17;;;;;;;4.88;1.88;;;5.60;99.90;;;;;;4949936;28;20031;-80
2023/03/13 01:48:58;;;;;;;7.43;2.20;;;5.60;99.90;;;;;;4967800;28;20055;-81
2023/03/13 01:51:32;;;;;;;7.88;2.40;;;5.60;99.90;;;;;;4987192;28;20587;-79
2023/03/13 01:54:25;;;;;;;8.57;2.50;;;5.60;99.90;;;;;;4974191;28;20030;-80
2023/03/13 01:57:05;;;;;;;11.68;2.75;;;5.60;99.90;;;;;;4953470;28;20046;-82
2023/03/13 01:59:53;;;;;;;7.97;1.80;;;5.60;99.90;;;;;;4958367;28;20030;-84
2023/03/13 02:02:21;;;;;;;11.75;2.60;;;5.60;99.90;;;;;;4963525;28;20046;-79
2023/03/13 02:04:52;;;;;;;7.70;1.90;;;5.60;99.90;;;;;;4956197;28;20086;-80
2023/03/13 02:07:36;;;;;;;10.82;2.50;;;5.50;99.90;;;;;;4971365;28;20398;-80
2023/03/13 02:10:03;;;;;;;9.20;2.40;;;5.50;99.90;;;;;;4951583;29;20038;-79
2023/03/13 02:12:34;;;;;;;11.02;2.45;;;5.50;99.90;;;;;;4975193;28;20070;-81
2023/03/13 02:15:04;;;;;;;7.70;2.40;;;5.40;99.90;;;;;;4970178;28;20061;-81
2023/03/13 02:17:33;;;;;;;7.00;2.47;;;5.30;99.90;;;;;;4953452;28;20118;-80
2023/03/13 02:20:01;;;;;;;5.40;2.00;;;5.30;99.90;;;;;;4974041;28;20487;-78
2023/03/13 02:22:31;;;;;;;8.63;2.33;;;5.30;99.90;;;;;;4945881;28;20042;-79
2023/03/13 02:25:24;;;;;;;9.75;2.15;;;5.30;99.90;;;;;;4954553;28;20033;-80
2023/03/13 02:28:00;;;;;;;8.55;1.98;;;5.30;99.90;;;;;;4989581;28;20030;-79
2023/03/13 02:30:27;;;;;;;6.97;2.33;;;5.40;99.90;;;;;;4942016;28;20514;-79
2023/03/13 02:32:54;;;;;;;4.55;1.95;;;5.40;99.90;;;;;;4982234;28;20031;-78
2023/03/13 02:35:22;;;;;;;11.85;2.17;;;5.50;99.90;;;;;;4927582;28;20057;-82
2023/03/13 02:37:55;;;;;;;7.80;1.95;;;5.50;99.90;;;;;;4964805;28;20038;-78
2023/03/13 02:40:33;;;;;;;6.43;2.40;;;5.50;99.90;;;;;;4932564;28;20062;-81
2023/03/13 02:43:07;;;;;;;6.55;2.30;;;5.60;99.90;;;;;;4988949;28;20129;-79
2023/03/13 02:45:33;;;;;;;7.00;2.30;;;5.60;99.90;;;;;;4942975;28;20067;-81
2023/03/13 02:47:59;;;;;;;7.85;2.13;;;5.60;99.90;;;;;;4962809;28;20026;-77
2023/03/13 02:50:25;;;;;;;6.53;1.95;;;5.60;99.90;;;;;;4953269;28;20170;-79
2023/03/13 02:53:04;;;;;;;7.03;2.10;;;5.60;99.90;;;;;;4953163;28;20038;-81
2023/03/13 02:55:37;;;;;;;7.38;2.08;;;5.60;99.90;;;;;;4957210;28;20027;-80
2023/03/13 02:58:04;;;;;;;6.38;1.95;;;5.60;99.90;;;;;;4989654;28;20027;-80
2023/03/13 03:00:34;;;;;;;5.63;1.63;;;5.50;99.90;;;;;;4989442;28;20030;-81
2023/03/13 03:03:00;;;;;;;8.32;1.98;;;5.40;99.90;;;;;;4972671;28;20117;-81
2023/03/13 03:05:26;;;;;;;7.18;1.85;;;5.30;99.90;;;;;;4940908;28;20210;-80
2023/03/13 03:07:51;;;;;;;7.25;1.80;;;5.30;99.90;;;;;;4928531;28;20039;-79
2023/03/13 03:10:18;;;;;;;5.75;1.98;;;5.20;99.90;;;;;;4957094;28;20043;-81
2023/03/13 03:12:44;;;;;;;6.38;1.30;;;5.10;99.90;;;;;;4983861;28;20412;-82
2023/03/13 03:15:10;;;;;;;9.15;1.92;;;5.10;99.90;;;;;;4952892;28;20035;-80
2023/03/13 03:17:40;;;;;;;5.95;2.08;;;5.10;99.90;;;;;;4948184;28;20027;-79
2023/03/13 03:20:10;;;;;;;7.10;1.83;;;5.20;99.90;;;;;;4969619;28;20038;-81
2023/03/13 03:22:39;;;;;;;9.15;1.85;;;5.20;99.90;;;;;;4933167;28;20030;-80
2023/03/13 03:25:07;;;;;;;10.93;1.98;;;5.30;99.90;;;;;;4957575;28;20036;-81
2023/03/13 03:27:32;;;;;;;6.80;1.75;;;5.30;99.90;;;;;;4971519;28;20065;-80
2023/03/13 03:29:58;;;;;;;9.07;1.88;;;5.40;99.90;;;;;;4949856;28;20062;-80
2023/03/13 03:32:24;;;;;;;10.70;2.08;;;5.50;99.90;;;;;;4950573;28;20052;-81
2023/03/13 03:34:50;;;;;;;10.60;2.38;;;5.50;99.90;;;;;;4938751;28;20138;-81
2023/03/13 03:37:15;;;;;;;13.85;2.08;;;5.60;99.90;;;;;;4944654;29;20027;-80
2023/03/13 03:39:41;;;;;;;5.75;1.80;;;5.60;99.90;;;;;;4940149;28;20066;-80
2023/03/13 03:42:08;;;;;;;5.22;1.75;;;5.70;99.90;;;;;;4954868;28;20050;-80
2023/03/13 03:44:34;;;;;;;11.98;2.03;;;5.70;99.90;;;;;;4958090;28;20034;-81
2023/03/13 03:47:00;;;;;;;8.48;1.73;;;5.80;99.90;;;;;;4953031;28;20068;-80
2023/03/13 03:49:32;;;;;;;9.35;1.60;;;5.80;99.90;;;;;;4946267;28;20141;-79
2023/03/13 03:51:58;;;;;;;10.90;1.65;;;5.90;99.90;;;;;;4946762;28;20602;-81
2023/03/13 03:54:32;;;;;;;8.88;1.70;;;5.90;99.90;;;;;;4938558;28;20034;-82
2023/03/13 03:56:58;;;;;;;5.28;1.40;;;6.00;99.90;;;;;;4949105;28;20034;-80
2023/03/13 03:59:24;;;;;;;9.32;1.85;;;6.00;99.90;;;;;;4951752;28;20031;-79
2023/03/13 04:01:56;;;;;;;9.57;1.50;;;6.00;99.90;;;;;;4957884;28;20034;-81
2023/03/13 04:04:24;;;;;;;13.15;1.90;;;6.10;99.90;;;;;;4928329;28;20126;-80
2023/03/13 04:06:56;;;;;;;11.80;1.70;;;6.10;99.90;;;;;;4944676;28;20034;-80
2023/03/13 04:09:22;;;;;;;5.15;2.28;;;6.20;99.90;;;;;;4960496;28;20050;-81
2023/03/13 04:11:48;;;;;;;9.80;1.70;;;6.20;99.90;;;;;;4964982;28;20122;-79
2023/03/13 04:14:14;;;;;;;13.93;2.47;;;6.30;99.90;;;;;;4964869;28;20381;-80
2023/03/13 04:16:40;;;;;;;8.93;1.85;;;6.30;99.90;;;;;;4952015;28;20130;-81
2023/03/13 04:19:06;;;;;;;9.48;1.83;;;6.40;99.90;;;;;;4952745;28;20037;-80
2023/03/13 04:21:32;;;;;;;5.95;1.58;;;6.40;99.90;;;;;;4955384;28;20039;-81
2023/03/13 04:24:06;;;;;;;12.68;1.90;;;6.40;99.90;;;;;;4957247;28;20065;-79
2023/03/13 04:26:33;;;;;;;10.13;2.05;;;6.40;99.90;;;;;;4967952;28;20038;-79
2023/03/13 04:28:59;;;;;;;6.82;1.42;;;6.50;99.90;;;;;;4973861;28;20041;-78
2023/03/13 04:31:45;;;;;;;5.78;2.08;;;6.50;99.90;;;;;;4956785;28;20058;-80
2023/03/13 04:34:29;;;;;;;7.50;1.80;;;6.50;99.90;;;;;;4963139;28;20085;-81
2023/03/13 04:37:18;;;;;;;11.07;1.92;;;6.60;99.90;;;;;;4957650;28;20038;-81
2023/03/13 04:40:06;;;;;;;6.70;1.48;;;6.70;99.90;;;;;;4966393;28;20240;-78
2023/03/13 04:42:52;;;;;;;8.52;1.40;;;6.80;99.90;;;;;;4946106;28;20500;-81
2023/03/13 04:45:36;;;;;;;5.90;1.67;;;6.80;99.90;;;;;;4969995;28;20088;-81
2023/03/13 04:48:14;;;;;;;6.10;1.63;;;6.80;99.90;;;;;;4982459;28;20499;-80
2023/03/13 04:50:59;;;;;;;9.20;1.75;;;6.80;99.90;;;;;;4976394;28;20061;-80
2023/03/13 04:53:43;;;;;;;7.72;1.73;;;6.70;99.90;;;;;;4992846;28;20069;-80
2023/03/13 04:56:28;;;;;;;8.00;1.67;;;6.80;99.90;;;;;;4976254;28;20041;-80
2023/03/13 04:59:11;;;;;;;5.30;1.58;;;6.80;99.90;;;;;;4982979;28;20027;-79
2023/03/13 05:01:55;;;;;;;10.82;2.08;;;6.80;99.90;;;;;;4994160;28;20053;-79
2023/03/13 05:04:38;;;;;;;5.65;1.90;;;6.80;99.90;;;;;;4962192;28;20086;-79
2023/03/13 05:07:04;;;;;;;6.38;1.40;;;6.80;99.90;;;;;;4976624;28;20107;-80
2023/03/13 05:09:41;;;;;;;4.47;1.23;;;6.80;99.90;;;;;;4956894;28;20523;-81
2023/03/13 05:12:40;;;;;;;7.90;1.35;;;6.80;99.90;;;;;;4982868;28;20039;-80
2023/03/13 05:15:30;;;;;;;7.55;2.70;;;6.80;99.90;;;;;;4966762;28;20030;-79
2023/03/13 05:18:15;;;;;;;8.52;1.45;;;6.80;99.90;;;;;;4982234;28;20133;-80
2023/03/13 05:20:47;;;;;;;7.10;1.75;;;6.70;99.90;;;;;;4967905;28;20027;-80
2023/03/13 05:23:33;;;;;;;5.40;1.60;;;6.70;99.90;;;;;;4952381;28;20078;-80
2023/03/13 05:26:15;;;;;;;7.95;2.25;;;6.80;99.90;;;;;;4962386;28;20463;-79
2023/03/13 05:28:50;;;;;;;7.80;2.00;;;6.80;99.90;;;;;;4997748;28;20518;-80
2023/03/13 05:31:26;;;;;;;6.88;1.60;;;6.90;99.90;;;;;;4962545;28;20041;-79
2023/03/13 05:33:55;;;;;;;6.68;1.40;;;6.80;99.90;;;;;;4969773;28;20113;-79
2023/03/13 05:36:39;;;;;;;7.78;1.52;;;6.90;99.90;;;;;;4951944;28;20031;-80
2023/03/13 05:39:25;;;;;;;6.63;1.35;;;6.90;99.90;;;;;;4980094;28;20141;-80
2023/03/13 05:42:11;;;;;;;5.88;2.50;;;6.90;99.90;;;;;;4961705;28;20058;-79
2023/03/13 05:45:00;;;;;;;10.73;1.85;;;6.90;99.90;;;;;;4939713;28;20059;-80
2023/03/13 05:47:58;;;;;;;5.57;1.90;;;6.90;99.90;;;;;;4978554;28;20034;-80
2023/03/13 05:50:42;;;;;;;5.53;1.30;;;7.00;99.90;;;;;;4951306;28;20078;-80
2023/03/13 05:53:20;;;;;;;7.22;1.83;;;7.00;99.90;;;;;;4963015;28;20031;-80
2023/03/13 05:56:00;;;;;;;6.82;1.40;;;7.10;99.90;;;;;;4974176;28;20057;-81
2023/03/13 05:58:44;;;;;;;6.70;1.58;;;7.10;99.90;;;;;;4978277;28;20050;-81
2023/03/13 06:01:30;;;;;;;6.15;1.48;;;7.20;99.90;;;;;;4949116;28;20030;-78
2023/03/13 06:04:08;;;;;;;3.42;1.23;;;7.20;99.90;;;;;;4951519;28;20035;-79
2023/03/13 06:06:35;;;;;;;5.60;1.80;;;7.10;99.90;;;;;;4951098;28;20403;-79
2023/03/13 06:09:02;;;;;;;9.52;1.55;;;7.20;99.90;;;;;;4952425;28;20125;-80
2023/03/13 06:11:30;;;;;;;11.40;1.98;;;7.20;99.90;;;;;;4948984;28;20096;-79
2023/03/13 06:13:56;;;;;;;5.60;1.55;;;7.20;99.90;;;;;;4948676;28;20030;-80
2023/03/13 06:16:42;;;;;;;4.47;1.33;;;7.10;99.90;;;;;;4970897;28;20097;-80
2023/03/13 06:19:16;;;;;;;7.47;1.50;;;7.10;99.90;;;;;;4967032;28;20037;-79
2023/03/13 06:21:42;;;;;;;7.93;1.35;;;7.10;99.90;;;;;;4967059;28;20039;-80
2023/03/13 06:24:08;;;;;;;2.60;0.98;;;7.10;99.90;;;;;;4941267;28;20044;-79
2023/03/13 06:26:34;;;;;;;3.75;1.20;;;7.10;99.90;;;;;;4979280;28;20491;-81
2023/03/13 06:29:00;;;;;;;7.43;1.70;;;7.10;99.90;;;;;;4957965;28;20038;-79
2023/03/13 06:31:26;;;;;;;7.65;1.70;;;7.00;99.90;;;;;;4936772;28;20093;-82
2023/03/13 06:33:55;;;;;;;4.97;1.38;;;7.00;99.90;;;;;;4948229;28;20027;-82
2023/03/13 06:36:24;;;;;;;6.65;1.30;;;7.00;99.90;;;;;;4981525;28;20100;-79
2023/03/13 06:38:50;;;;;;;5.10;1.45;;;7.00;99.90;;;;;;4970881;28;20034;-80
2023/03/13 06:41:16;;;;;;;3.65;1.30;;;7.00;99.90;;;;;;4954494;28;20670;-80
2023/03/13 06:43:43;;;;;;;11.45;1.70;;;7.00;99.90;;;;;;4984252;28;20065;-79
2023/03/13 06:46:18;;;;;;;2.58;1.10;;;7.00;99.90;;;;;;4968647;28;20046;-79
2023/03/13 06:48:45;;;;;;;5.13;1.33;;;7.00;99.90;;;;;;4955322;28;20551;-81
2023/03/13 06:51:16;;;;;;;4.15;1.27;;;7.00;99.90;;;;;;4957446;28;20179;-79
2023/03/13 06:53:42;;;;;;;7.47;1.23;;;7.10;99.90;;;;;;4963002;28;20626;-80
2023/03/13 06:56:08;;;;;;;5.22;1.33;;;7.10;99.90;;;;;;4946383;28;20113;-80
2023/03/13 06:58:34;;;;;;;6.65;1.70;;;7.10;99.90;;;;;;4947187;28;20038;-82
2023/03/13 07:01:11;;;;;;;4.60;1.38;;;7.20;99.90;;;;;;4955215;28;20038;-81
2023/03/13 07:03:38;;;;;;;5.07;1.35;;;7.20;99.90;;;;;;4963476;28;20460;-78
2023/03/13 07:06:05;;;;;;;3.75;1.20;;;7.20;99.90;;;;;;4946468;28;20031;-80
2023/03/13 07:08:31;;;;;;;4.72;1.50;;;7.20;99.90;;;;;;4977116;28;20090;-80
2023/03/13 07:11:00;;;;;;;4.60;1.38;;;7.20;99.90;;;;;;4971026;28;20031;-78
2023/03/13 07:13:26;;;;;;;5.88;1.30;;;7.20;99.90;;;;;;4967472;28;20026;-80
2023/03/13 07:15:52;;;;;;;3.90;1.20;;;7.20;99.90;;;;;;4988739;28;20118;-80
2023/03/13 07:18:18;;;;;;;4.25;1.30;;;7.20;99.90;;;;;;4983963;28;20042;-80
2023/03/13 07:20:44;;;;;;;4.53;1.33;;;7.20;99.90;;;;;;4969779;28;20037;-82
2023/03/13 07:23:10;;;;;;;6.07;1.42;;;7.30;99.90;;;;;;4971460;28;20398;-81
2023/03/13 07:25:36;;;;;;;6.30;1.27;;;7.30;99.90;;;;;;4987476;28;20105;-79
2023/03/13 07:28:01;;;;;;;2.97;1.02;;;7.30;99.90;;;;;;4964125;28;20334;-82
2023/03/13 07:30:27;;;;;;;2.47;1.05;;;7.30;99.90;;;;;;4963760;28;20109;-82
2023/03/13 07:32:53;;;;;;;5.97;1.70;;;7.40;99.90;;;;;;4967675;28;20412;-81
2023/03/13 07:35:19;;;;;;;5.18;1.42;;;7.40;99.90;;;;;;4969586;28;20086;-82
2023/03/13 07:37:45;;;;;;;4.43;1.20;;;7.40;99.90;;;;;;4964067;28;20391;-80
2023/03/13 07:40:11;;;;;;;4.30;1.33;;;7.50;99.90;;;;;;4965854;28;20472;-82
2023/03/13 07:42:41;;;;;;;4.10;1.33;;;7.60;99.90;;;;;;4964673;28;20053;-81
2023/03/13 07:45:08;;;;;;;2.22;1.08;;;7.60;99.90;;;;;;4953439;28;20418;-78
2023/03/13 07:47:34;;;;;;;6.78;1.17;;;7.70;99.90;;;;;;4971879;28;20027;-80
2023/03/13 07:50:00;;;;;;;3.65;1.10;;;7.70;99.90;;;;;;4967846;28;20030;-82
2023/03/13 07:52:26;;;;;;;7.97;1.38;;;7.80;99.90;;;;;;4943712;28;20030;-79
2023/03/13 07:54:53;;;;;;;3.45;1.40;;;7.80;99.90;;;;;;4983461;28;20038;-82
2023/03/13 07:57:19;;;;;;;4.25;1.08;;;7.90;99.90;;;;;;4952982;28;20827;-81
2023/03/13 07:59:45;;;;;;;2.72;1.13;;;8.00;99.90;;;;;;4946991;28;20544;-80
2023/03/13 08:02:12;;;;;;;3.83;1.10;;;8.10;99.90;;;;;;4960633;28;20045;-80
2023/03/13 08:04:39;;;;;;;3.53;1.20;;;8.10;99.90;;;;;;4980607;28;20038;-82
2023/03/13 08:07:11;;;;;;;1.75;1.13;;;8.20;99.90;;;;;;4977046;28;20050;-80
2023/03/13 08:09:37;;;;;;;2.38;1.10;;;8.30;99.90;;;;;;4954492;28;20062;-81
2023/03/13 08:12:03;;;;;;;2.83;1.10;;;8.40;99.90;;;;;;4971729;28;20026;-80
2023/03/13 08:14:29;;;;;;;6.15;1.63;;;8.40;99.90;;;;;;4986551;28;20049;-80
2023/03/13 08:16:54;;;;;;;3.40;1.00;;;8.40;99.90;;;;;;4972934;28;20022;-81
2023/03/13 08:19:20;;;;;;;3.65;1.08;;;8.40;99.90;;;;;;4952995;28;20034;-80
2023/03/13 08:21:46;;;;;;;1.98;0.70;;;8.50;99.90;;;;;;4974098;28;20038;-80
2023/03/13 08:24:12;;;;;;;4.80;1.13;;;8.50;99.90;;;;;;4964699;28;20038;-80
2023/03/13 08:26:41;;;;;;;4.30;0.88;;;8.50;99.90;;;;;;4967508;28;20043;-82
2023/03/13 08:29:09;;;;;;;5.35;0.88;;;8.50;99.90;;;;;;4971694;28;20114;-81
2023/03/13 08:31:38;;;;;;;5.18;1.08;;;8.50;99.90;;;;;;4952713;28;20118;-77
2023/03/13 08:34:03;;;;;;;2.50;0.98;;;8.50;99.90;;;;;;4941846;28;20034;-81
2023/03/13 08:36:35;;;;;;;3.97;1.00;;;8.50;99.90;;;;;;4964572;28;20027;-79
2023/03/13 08:39:04;;;;;;;3.17;1.02;;;8.50;99.90;;;;;;4987248;28;20045;-79
2023/03/13 08:41:34;;;;;;;4.80;1.35;;;8.50;99.90;;;;;;4982288;28;20035;-79
2023/03/13 08:44:02;;;;;;;2.85;0.82;;;8.50;99.90;;;;;;4946651;28;20026;-79
2023/03/13 08:46:29;;;;;;;1.30;0.77;;;8.50;99.90;;;;;;4980473;28;20039;-79
2023/03/13 08:48:55;;;;;;;2.30;0.93;;;8.50;99.90;;;;;;4968232;28;20046;-79
2023/03/13 08:51:24;;;;;;;2.22;0.90;;;8.50;99.90;;;;;;4974377;28;20038;-80
2023/03/13 08:53:50;;;;;;;4.10;1.10;;;8.60;99.90;;;;;;4974145;28;20026;-80
2023/03/13 08:56:18;;;;;;;4.20;1.08;;;8.60;99.90;;;;;;4978136;28;20030;-81
2023/03/13 08:58:49;;;;;;;3.72;0.80;;;8.60;99.90;;;;;;4980211;28;20023;-81
2023/03/13 09:01:15;;;;;;;5.00;0.80;;;8.60;99.90;;;;;;4974787;28;20074;-81
2023/03/13 09:03:42;;;;;;;2.53;1.00;;;8.60;99.90;;;;;;4949318;28;20038;-81
2023/03/13 09:06:08;;;;;;;3.45;1.20;;;8.60;99.90;;;;;;4987470;28;20026;-80
2023/03/13 09:08:37;;;;;;;1.83;1.00;;;8.70;99.90;;;;;;4992502;28;20026;-79
2023/03/13 09:11:06;;;;;;;0.90;0.60;;;8.70;99.90;;;;;;4982113;28;20109;-79
2023/03/13 09:13:34;;;;;;;1.70;0.93;;;8.70;99.90;;;;;;4983753;28;20050;-79
2023/03/13 09:16:09;;;;;;;3.90;1.35;;;8.70;99.90;;;;;;4982959;28;20037;-79
2023/03/13 09:18:35;;;;;;;2.43;0.90;;;8.80;99.90;;;;;;4966756;28;20427;-79
2023/03/13 09:21:02;;;;;;;3.50;1.73;;;8.90;99.90;;;;;;4969303;28;20516;-79
2023/03/13 09:23:28;;;;;;;3.65;1.00;;;8.90;99.90;;;;;;4969996;28;20061;-79
2023/03/13 09:25:56;;;;;;;3.95;1.25;;;9.00;99.90;;;;;;4970269;28;20023;-79
2023/03/13 09:28:23;;;;;;;2.13;1.10;;;9.00;99.90;;;;;;4969087;28;20034;-79
2023/03/13 09:30:49;;;;;;;1.55;0.90;;;9.10;99.90;;;;;;4983593;28;20026;-79
2023/03/13 09:33:16;;;;;;;4.95;1.30;;;9.10;99.90;;;;;;4964394;28;20027;-80
2023/03/13 09:35:42;;;;;;;5.60;1.00;;;9.20;99.90;;;;;;4970507;28;20042;-79
2023/03/13 09:38:08;;;;;;;1.88;0.85;;;9.10;99.90;;;;;;4971564;28;20034;-80
2023/03/13 09:40:45;;;;;;;2.40;1.00;;;9.20;99.90;;;;;;4948734;28;20510;-80
2023/03/13 09:43:48;;;;;;;6.07;1.40;;;9.20;99.90;;;;;;4982281;28;20036;-81
2023/03/13 09:46:23;;;;;;;1.20;0.98;;;9.20;99.90;;;;;;4966234;28;20026;-81
2023/03/13 09:48:54;;;;;;;3.85;0.93;;;9.20;99.90;;;;;;4984499;28;20027;-81
2023/03/13 09:51:26;;;;;;;4.05;1.08;;;9.30;99.90;;;;;;4956975;28;20034;-81
2023/03/13 09:54:20;;;;;;;2.03;1.00;;;9.30;99.90;;;;;;4971503;28;20034;-80
2023/03/13 09:57:11;;;;;;;2.40;1.15;;;9.30;99.90;;;;;;4988842;28;20030;-79
2023/03/13 09:59:45;;;;;;;1.50;0.93;;;9.30;99.90;;;;;;4974790;28;20029;-80
2023/03/13 10:02:35;;;;;;;2.97;0.80;;;9.40;99.90;;;;;;4984085;28;20120;-78
2023/03/13 10:05:06;;;;;;;2.42;1.25;;;9.40;99.90;;;;;;4950965;28;20093;-78
2023/03/13 10:07:32;;;;;;;2.67;1.10;;;9.40;99.90;;;;;;4983387;28;20037;-79
2023/03/13 10:10:00;;;;;;;3.08;0.90;;;9.40;99.90;;;;;;4969572;28;20034;-78
2023/03/13 10:12:30;;;;;;;2.70;1.20;;;9.40;99.90;;;;;;4984261;28;20046;-78
2023/03/13 10:15:20;;;;;;;3.42;0.73;;;9.50;99.90;;;;;;4981169;28;20121;-79
2023/03/13 10:17:46;;;;;;;2.47;0.68;;;9.50;99.90;;;;;;4978486;28;20391;-78
2023/03/13 10:20:34;;;;;;;1.27;0.95;;;9.50;99.90;;;;;;4951300;28;20034;-79
2023/03/13 10:23:07;;;;;;;1.95;0.77;;;9.60;99.90;;;;;;4979624;28;20586;-79
2023/03/13 10:25:37;;;;;;;1.83;0.90;;;9.60;99.90;;;;;;4951788;28;20143;-78
2023/03/13 10:28:03;;;;;;;4.35;1.23;;;9.60;99.90;;;;;;4985427;28;20019;-79
2023/03/13 10:30:33;;;;;;;3.33;1.00;;;9.60;99.90;;;;;;4978639;28;20038;-79
2023/03/13 10:33:00;;;;;;;2.03;0.90;;;9.60;99.90;;;;;;4973873;28;20050;-78
2023/03/13 10:35:42;;;;;;;3.33;0.90;;;9.60;99.90;;;;;;4962371;28;20091;-79
2023/03/13 10:38:16;;;;;;;4.75;0.93;;;9.70;99.90;;;;;;4967058;28;20047;-79
2023/03/13 10:40:42;;;;;;;2.85;0.90;;;9.70;99.90;;;;;;4972444;28;20030;-80
2023/03/13 10:43:19;;;;;;;1.80;0.90;;;9.80;99.90;;;;;;4950303;28;20236;-80
2023/03/13 10:45:45;;;;;;;3.53;1.08;;;9.90;99.90;;;;;;4977337;28;20038;-79
2023/03/13 10:48:17;;;;;;;1.02;0.70;;;9.90;99.90;;;;;;4971471;28;20041;-79
2023/03/13 10:50:45;;;;;;;3.85;1.25;;;10.00;99.90;;;;;;4975133;28;20057;-79
2023/03/13 10:53:32;;;;;;;5.40;0.80;;;10.00;99.90;;;;;;4977104;28;20031;-78
2023/03/13 10:55:58;;;;;;;2.10;0.60;;;10.10;99.90;;;;;;4971516;28;20018;-79
2023/03/13 10:58:36;;;;;;;1.95;0.85;;;10.10;99.90;;;;;;4980328;28;20037;-80
2023/03/13 11:01:21;;;;;;;1.90;0.70;;;10.20;99.90;;;;;;4980969;28;20643;-79
2023/03/13 11:03:48;;;;;;;3.33;1.15;;;10.30;99.90;;;;;;4980112;28;20122;-79
2023/03/13 11:06:35;;;;;;;2.85;0.98;;;10.40;99.90;;;;;;4974740;28;20037;-81
2023/03/13 11:09:11;;;;;;;1.70;1.02;;;10.50;99.90;;;;;;4961811;28;20093;-79
2023/03/13 11:12:19;;;;;;;1.42;0.85;;;10.60;99.90;;;;;;4943010;28;20038;-80
2023/03/13 11:14:45;;;;;;;2.35;1.10;;;10.80;99.90;;;;;;4976559;28;20034;-78
2023/03/13 11:17:28;;;;;;;0.77;0.73;;;11.10;99.90;;;;;;4984207;28;20117;-76
2023/03/13 11:20:01;;;;;;;1.27;0.90;;;11.20;99.90;;;;;;4978130;28;20039;-80
2023/03/13 11:22:50;;;;;;;3.10;1.00;;;11.40;99.90;;;;;;4978173;28;20042;-79
2023/03/13 11:25:50;;;;;;;2.42;0.80;;;11.60;99.90;;;;;;4962032;28;20058;-79
2023/03/13 11:28:28;;;;;;;1.23;0.95;;;11.70;99.90;;;;;;4939275;28;20089;-77
2023/03/13 11:30:57;;;;;;;1.05;0.73;;;11.80;99.90;;;;;;4975500;28;20030;-78
2023/03/13 11:33:55;;;;;;;0.90;0.68;;;11.90;99.90;;;;;;4980677;28;20031;-80
2023/03/13 11:36:27;;;;;;;2.80;1.10;;;12.10;99.90;;;;;;4967704;28;20053;-78
2023/03/13 11:39:06;;;;;;;3.42;0.90;;;12.10;99.90;;;;;;4975694;28;20031;-76
2023/03/13 11:42:02;;;;;;;2.22;0.80;;;12.30;99.90;;;;;;4977065;28;20034;-79
2023/03/13 11:44:51;;;;;;;0.80;0.77;;;12.30;99.90;;;;;;4979851;28;20086;-79
2023/03/13 11:47:32;;;;;;;1.08;0.57;;;12.50;99.90;;;;;;4980548;28;20090;-79
2023/03/13 11:49:58;;;;;;;3.20;0.90;;;12.60;99.90;;;;;;4954069;28;20045;-79
2023/03/13 11:52:39;;;;;;;1.00;0.60;;;12.70;99.90;;;;;;4976753;28;20458;-76
2023/03/13 11:55:27;;;;;;;0.82;0.60;;;12.70;99.90;;;;;;4962507;28;20026;-77
2023/03/13 11:58:34;;;;;;;3.30;1.00;;;12.70;99.90;;;;;;4973283;28;20035;-80
2023/03/13 12:01:18;;;;;;;1.00;0.63;;;12.60;99.90;;;;;;4951153;28;20039;-77
2023/03/13 12:04:28;;;;;;;0.70;0.70;;;12.60;99.90;;;;;;4960630;28;20034;-80
2023/03/13 12:07:01;;;;;;;0.90;0.70;;;12.50;99.90;;;;;;4965993;28;20030;-79
2023/03/13 12:09:33;;;;;;;2.35;0.80;;;12.50;99.90;;;;;;4984725;28;20037;-78
2023/03/13 12:12:10;;;;;;;1.17;0.90;;;12.40;99.90;;;;;;4968453;28;20053;-79
2023/03/13 12:14:48;;;;;;;2.75;0.80;;;12.40;99.90;;;;;;4981742;28;20035;-76
2023/03/13 12:17:35;;;;;;;1.67;0.93;;;12.50;99.90;;;;;;4961824;28;20062;-79
2023/03/13 12:20:07;;;;;;;1.20;0.80;;;12.50;99.90;;;;;;4982376;28;20022;-78
2023/03/13 12:22:52;;;;;;;2.78;0.90;;;12.50;99.90;;;;;;4983452;28;20051;-80
2023/03/13 12:25:24;;;;;;;2.00;1.00;;;12.50;99.90;;;;;;4981146;28;20050;-80
2023/03/13 12:28:23;;;;;;;0.82;0.70;;;12.50;99.90;;;;;;4971070;28;20031;-78
2023/03/13 12:31:04;;;;;;;2.15;0.80;;;12.60;99.90;;;;;;4973044;28;20034;-78
2023/03/13 12:33:46;;;;;;;2.85;0.98;;;12.70;99.90;;;;;;4980929;28;20034;-77
2023/03/13 12:36:25;;;;;;;1.15;0.88;;;12.80;99.90;;;;;;4959111;28;20030;-78
2023/03/13 12:39:11;;;;;;;1.05;0.80;;;12.80;99.90;;;;;;4975577;28;20085;-76
2023/03/13 12:41:42;;;;;;;1.05;0.90;;;12.80;99.90;;;;;;4967897;28;20035;-78
2023/03/13 12:44:17;;;;;;;1.38;1.10;;;12.80;99.90;;;;;;4960125;28;20523;-77
2023/03/13 12:47:30;;;;;;;0.90;0.90;;;12.80;99.90;;;;;;4976692;28;20595;-79
2023/03/13 12:50:21;;;;;;;1.25;1.02;;;12.80;99.90;;;;;;4964196;28;20074;-78
2023/03/13 12:53:02;;;;;;;1.95;0.80;;;12.90;99.90;;;;;;4969682;28;20037;-78
2023/03/13 12:55:57;;;;;;;0.90;0.70;;;12.80;99.90;;;;;;4956842;28;20542;-78
2023/03/13 12:58:41;;;;;;;1.38;0.93;;;12.80;99.90;;;;;;4966689;28;20039;-78
2023/03/13 13:01:14;;;;;;;1.67;1.00;;;12.90;99.90;;;;;;4972978;28;20523;-77
2023/03/13 13:03:55;;;;;;;2.03;1.00;;;12.80;99.90;;;;;;4976581;28;20046;-78
2023/03/13 13:06:21;;;;;;;1.35;1.00;;;12.80;99.90;;;;;;4975427;28;20034;-78
2023/03/13 13:08:52;;;;;;;2.95;0.73;;;12.80;99.90;;;;;;4974737;28;20027;-78
2023/03/13 13:11:34;;;;;;;0.95;0.70;;;12.70;99.90;;;;;;4959108;28;20035;-77
2023/03/13 13:14:19;;;;;;;1.45;0.90;;;12.80;99.90;;;;;;4974469;28;20029;-78
2023/03/13 13:16:49;;;;;;;1.92;0.90;;;12.80;99.90;;;;;;4948070;28;20039;-78
2023/03/13 13:19:24;;;;;;;2.17;1.05;;;13.00;99.90;;;;;;4966748;28;20475;-77
2023/03/13 13:22:27;;;;;;;5.47;1.15;;;13.20;99.90;;;;;;4965189;28;20558;-78